Terminal Aerodrome Forecast
Issued by NWS Boston, MA

Home | Current Version | Previous Version | Text Only | Print | Product List | Glossary On
Versions: 1 2 3 4 5 6 7 8 9 10 11 12 13 14 15 16 17 18 19 20 21 22 23 24 25 26 27 28 29 30 31 32 33 34 35 36 37 38 39 40 41 42 43
000
FTUS41 KBOX 070857 AAA
TAFBDL
TAF AMD
KBDL 070857Z 0709/0812 16004KT P6SM OVC015
     FM071300 15005KT P6SM BKN020
     FM071400 16005KT P6SM VCSH BKN020
     FM071600 17007KT P6SM VCSH BKN040
     FM071900 19010G19KT P6SM BKN050
     FM080200 19006KT P6SM BKN140=

USA.gov is the U.S. government's official web portal to all federal, state and local government web resources and services.